Holly Ann — WDE9094 — position and weather

sailwx.info

Track history (hours):
 
Tides and Currents Weather Stations Pressure Air Temp Water Temp Dewpoint Dewpoint Depression Visibility Wind Speed Wind Dir Waves Ship Positions

Holly Ann

Owner: Manke Tug and Barge Co., Inc., Shelton, WA. More information available from US FCC via Universal Licensing System and Coast Guard Vessel Documentation Center.

Last reported at 2017-Apr-27 22:34 UTC. Time now 2017-Apr-29 15:25 UTC.
Position N 47°17' W 122°26'.

; draft 4.5 m.

Type: Towing. MMSI: 367413350.

Date/timePositionNaut miles runAvg speedWind from/ knotsBaromVisibWave heightAir tempDewpointWater temp
2017-Apr-27 22:34N 47°17' W 122°26'1 6.7
2017-Apr-27 22:29N 47°18' W 122°26'3 5.7
2017-Apr-27 22:00N 47°20' W 122°26'4 7.1
2017-Apr-27 21:30N 47°23' W 122°23'3 6.6
2017-Apr-27 21:00N 47°26' W 122°24'3 6.6
2017-Apr-27 20:30N 47°29' W 122°26'3 6.8
2017-Apr-27 20:00N 47°32' W 122°27'3 6.6
2017-Apr-27 19:30N 47°35' W 122°25'2 4.5
2017-Apr-27 19:01N 47°35' W 122°22'1 1.1
2017-Apr-27 18:30N 47°34' W 122°21'0 0.0
2017-Apr-27 18:00N 47°34' W 122°21'0 0.0
2017-Apr-27 17:30N 47°34' W 122°21'0 0.0
2017-Apr-27 17:00N 47°34' W 122°21'0 0.0
2017-Apr-27 16:30N 47°34' W 122°21'0 0.0
2017-Apr-27 16:00N 47°34' W 122°21'0 0.0
2017-Apr-27 15:30N 47°34' W 122°21'0 0.0
2017-Apr-27 15:00N 47°34' W 122°21'0 0.0
2017-Apr-27 14:00N 47°34' W 122°21'0 0.0
2017-Apr-27 13:30N 47°34' W 122°21'0 0.0
2017-Apr-27 13:00N 47°34' W 122°21'0 0.0
2017-Apr-27 12:30N 47°34' W 122°21'0 0.0
2017-Apr-27 12:00N 47°34' W 122°21'0 0.0
2017-Apr-27 11:30N 47°34' W 122°21'0 0.0
2017-Apr-27 11:00N 47°34' W 122°21'0 0.0
2017-Apr-27 10:30N 47°34' W 122°21'0 0.0
2017-Apr-27 10:00N 47°34' W 122°21'0 0.0
2017-Apr-27 09:30N 47°34' W 122°21'0 0.1
2017-Apr-27 09:00N 47°34' W 122°21'1 1.3
2017-Apr-27 08:31N 47°35' W 122°22'1 2.1
2017-Apr-27 08:01N 47°36' W 122°22'3 5.2
2017-Apr-27 07:30N 47°34' W 122°26'4 8.9
2017-Apr-27 07:00N 47°31' W 122°29'5 9.4
2017-Apr-27 06:30N 47°26' W 122°31'4 8.5
2017-Apr-27 06:00N 47°22' W 122°32'5 9.6
2017-Apr-27 05:30N 47°17' W 122°33'5 9.7
2017-Apr-27 05:00N 47°13' W 122°36'  
2017-Apr-22 06:08N 47°13' W 122°36'1 9.3
2017-Apr-22 06:00N 47°14' W 122°35'5 9.8
2017-Apr-22 05:29N 47°19' W 122°33'4 7.9
2017-Apr-22 05:00N 47°22' W 122°32'4 7.9
2017-Apr-22 04:30N 47°26' W 122°31'4 7.9
2017-Apr-22 04:00N 47°30' W 122°30'4 7.7
2017-Apr-22 03:30N 47°33' W 122°26'4 7.2
2017-Apr-22 03:00N 47°36' W 122°23'2 4.2
2017-Apr-22 02:30N 47°34' W 122°21'0 0.0
2017-Apr-22 02:00N 47°34' W 122°21'0 0.0
2017-Apr-22 01:30N 47°34' W 122°21'0 0.0
2017-Apr-22 01:00N 47°34' W 122°21'0 0.0
2017-Apr-22 00:30N 47°34' W 122°21'0 0.0
2017-Apr-22 00:00N 47°34' W 122°21'0 0.0
2017-Apr-21 23:30N 47°34' W 122°21'0 0.0
2017-Apr-21 23:00N 47°34' W 122°21'0 0.0
2017-Apr-21 22:30N 47°34' W 122°21'0 0.0
2017-Apr-21 22:00N 47°34' W 122°21'0 0.0
2017-Apr-21 21:30N 47°34' W 122°21'0 0.0
2017-Apr-21 21:00N 47°34' W 122°21'0 0.0
2017-Apr-21 20:30N 47°34' W 122°21'0 0.0
2017-Apr-21 20:00N 47°34' W 122°21'0 0.0
2017-Apr-21 19:30N 47°34' W 122°21'0 0.0
2017-Apr-21 19:00N 47°34' W 122°21'0 0.0
2017-Apr-21 18:30N 47°34' W 122°21'0 0.0
2017-Apr-21 18:00N 47°34' W 122°21'0 0.0
2017-Apr-21 17:30N 47°34' W 122°21'0 0.0
2017-Apr-21 17:00N 47°34' W 122°21'0 0.0
2017-Apr-21 16:30N 47°34' W 122°21'0 0.0
2017-Apr-21 16:00N 47°34' W 122°21'0 0.0
2017-Apr-21 15:30N 47°34' W 122°21'0 0.0
2017-Apr-21 15:00N 47°34' W 122°21'0 0.0
2017-Apr-21 14:30N 47°34' W 122°21'0 0.0
2017-Apr-21 13:30N 47°34' W 122°21'0 0.0
2017-Apr-21 13:00N 47°34' W 122°21'0 0.0
2017-Apr-21 12:30N 47°34' W 122°21'0 0.0
2017-Apr-21 12:00N 47°34' W 122°21'0 0.0
2017-Apr-21 11:30N 47°34' W 122°21'0 0.0
2017-Apr-21 11:00N 47°34' W 122°21'0 0.0
2017-Apr-21 10:30N 47°34' W 122°21'0 0.0
2017-Apr-21 10:00N 47°34' W 122°21'0 0.0
2017-Apr-21 09:30N 47°34' W 122°21'0 0.0
2017-Apr-21 09:00N 47°34' W 122°21'0 0.0
2017-Apr-21 08:30N 47°34' W 122°21'0 0.0
2017-Apr-21 08:00N 47°34' W 122°21'0 0.0
2017-Apr-21 07:30N 47°34' W 122°21'0 0.0
2017-Apr-21 07:00N 47°34' W 122°21'0 0.0
2017-Apr-21 06:30N 47°34' W 122°21'0 0.0
2017-Apr-21 06:00N 47°34' W 122°21'0 0.0
2017-Apr-21 05:30N 47°34' W 122°21'0 0.1
2017-Apr-21 05:00N 47°34' W 122°21'1 2.8
2017-Apr-21 04:30N 47°35' W 122°22'1 2.8
2017-Apr-21 04:00N 47°36' W 122°24'3 5.4
2017-Apr-21 03:30N 47°34' W 122°26'3 6.3
2017-Apr-21 03:00N 47°30' W 122°25'3 6.1
2017-Apr-21 02:30N 47°28' W 122°24'3 6.0
2017-Apr-21 02:00N 47°25' W 122°22'3 5.3
2017-Apr-21 01:30N 47°22' W 122°22'3 6.3
2017-Apr-21 01:00N 47°20' W 122°25'3 6.1
2017-Apr-21 00:30N 47°19' W 122°29'3 5.7
2017-Apr-21 00:00N 47°20' W 122°33'4 7.4
2017-Apr-20 23:30N 47°16' W 122°33'4 7.3
2017-Apr-20 23:00N 47°13' W 122°36'2 0.1
2017-Apr-20 04:36N 47°11' W 122°39'1 7.8
2017-Apr-20 04:27N 47°12' W 122°37'4 9.7
2017-Apr-20 04:00N 47°16' W 122°33'5 9.7
2017-Apr-20 03:30N 47°20' W 122°33'4 8.0
2017-Apr-20 03:00N 47°24' W 122°32'4 8.2
2017-Apr-20 02:31N 47°28' W 122°31'4 8.0
2017-Apr-20 02:01N 47°32' W 122°28'4 7.5
2017-Apr-20 01:30N 47°35' W 122°25'3 5.1
2017-Apr-20 01:01N 47°34' W 122°21'1 2.7
2017-Apr-20 00:31N 47°33' W 122°21'0 0.0
2017-Apr-20 00:00N 47°33' W 122°21'0 0.0
2017-Apr-19 23:31N 47°33' W 122°21'0 0.0
2017-Apr-19 23:01N 47°33' W 122°21'0 0.0
2017-Apr-19 22:31N 47°33' W 122°21'0 0.0
2017-Apr-19 22:01N 47°33' W 122°21'0 0.0
2017-Apr-19 21:31N 47°33' W 122°21'0 0.0
2017-Apr-19 21:01N 47°33' W 122°21'0 0.0
2017-Apr-19 20:30N 47°33' W 122°21'0 0.0
2017-Apr-19 20:01N 47°33' W 122°21'0 0.0
2017-Apr-19 19:31N 47°33' W 122°21'0 0.0
2017-Apr-19 19:01N 47°33' W 122°21'0 0.0
2017-Apr-19 18:30N 47°33' W 122°21'0 0.0
2017-Apr-19 18:00N 47°33' W 122°21'0 0.0
2017-Apr-19 17:31N 47°33' W 122°21'0 0.0
2017-Apr-19 17:01N 47°33' W 122°21'0 0.0
2017-Apr-19 16:30N 47°33' W 122°21'0 0.0
2017-Apr-19 16:00N 47°33' W 122°21'0 0.0
2017-Apr-19 15:30N 47°33' W 122°21'0 0.0
2017-Apr-19 15:00N 47°33' W 122°21'0 0.0
2017-Apr-19 14:31N 47°33' W 122°21'3 2.9
2017-Apr-19 13:31N 47°36' W 122°22'3 6.5
2017-Apr-19 13:01N 47°34' W 122°26'4 8.3
2017-Apr-19 12:31N 47°30' W 122°29'4 8.3
2017-Apr-19 12:01N 47°26' W 122°31'4 8.0
2017-Apr-19 11:31N 47°22' W 122°32'4 8.2
2017-Apr-19 11:01N 47°18' W 122°33'4 8.8
2017-Apr-19 10:30N 47°14' W 122°35'4 8.2
2017-Apr-19 10:00N 47°11' W 122°39'1 0.1
2017-Apr-18 14:58N 47°12' W 122°38'4 9.0
2017-Apr-18 14:30N 47°15' W 122°34'5 5.3
2017-Apr-18 13:30N 47°18' W 122°27'  
Track history (hours):
 
Tides and Currents Weather Stations Pressure Air Temp Water Temp Dewpoint Dewpoint Depression Visibility Wind Speed Wind Dir Waves Ship Positions

Holly Ann

Owner: Manke Tug and Barge Co., Inc., Shelton, WA. More information available from US FCC via Universal Licensing System and Coast Guard Vessel Documentation Center.

Last reported at 2017-Apr-27 22:34 UTC. Time now 2017-Apr-29 15:25 UTC.
Position N 47°17' W 122°26'.

; draft 4.5 m.

Type: Towing. MMSI: 367413350.

Date/timePositionNaut miles runAvg speedWind from/ knotsBaromVisibWave heightAir tempDewpointWater temp
2017-Apr-27 22:34N 47°17' W 122°26'1 6.7
2017-Apr-27 22:29N 47°18' W 122°26'3 5.7
2017-Apr-27 22:00N 47°20' W 122°26'4 7.1
2017-Apr-27 21:30N 47°23' W 122°23'3 6.6
2017-Apr-27 21:00N 47°26' W 122°24'3 6.6
2017-Apr-27 20:30N 47°29' W 122°26'3 6.8
2017-Apr-27 20:00N 47°32' W 122°27'3 6.6
2017-Apr-27 19:30N 47°35' W 122°25'2 4.5
2017-Apr-27 19:01N 47°35' W 122°22'1 1.1
2017-Apr-27 18:30N 47°34' W 122°21'0 0.0
2017-Apr-27 18:00N 47°34' W 122°21'0 0.0
2017-Apr-27 17:30N 47°34' W 122°21'0 0.0
2017-Apr-27 17:00N 47°34' W 122°21'0 0.0
2017-Apr-27 16:30N 47°34' W 122°21'0 0.0
2017-Apr-27 16:00N 47°34' W 122°21'0 0.0
2017-Apr-27 15:30N 47°34' W 122°21'0 0.0
2017-Apr-27 15:00N 47°34' W 122°21'0 0.0
2017-Apr-27 14:00N 47°34' W 122°21'0 0.0
2017-Apr-27 13:30N 47°34' W 122°21'0 0.0
2017-Apr-27 13:00N 47°34' W 122°21'0 0.0
2017-Apr-27 12:30N 47°34' W 122°21'0 0.0
2017-Apr-27 12:00N 47°34' W 122°21'0 0.0
2017-Apr-27 11:30N 47°34' W 122°21'0 0.0
2017-Apr-27 11:00N 47°34' W 122°21'0 0.0
2017-Apr-27 10:30N 47°34' W 122°21'0 0.0
2017-Apr-27 10:00N 47°34' W 122°21'0 0.0
2017-Apr-27 09:30N 47°34' W 122°21'0 0.1
2017-Apr-27 09:00N 47°34' W 122°21'1 1.3
2017-Apr-27 08:31N 47°35' W 122°22'1 2.1
2017-Apr-27 08:01N 47°36' W 122°22'3 5.2
2017-Apr-27 07:30N 47°34' W 122°26'4 8.9
2017-Apr-27 07:00N 47°31' W 122°29'5 9.4
2017-Apr-27 06:30N 47°26' W 122°31'4 8.5
2017-Apr-27 06:00N 47°22' W 122°32'5 9.6
2017-Apr-27 05:30N 47°17' W 122°33'5 9.7
2017-Apr-27 05:00N 47°13' W 122°36'  
2017-Apr-22 06:08N 47°13' W 122°36'1 9.3
2017-Apr-22 06:00N 47°14' W 122°35'5 9.8
2017-Apr-22 05:29N 47°19' W 122°33'4 7.9
2017-Apr-22 05:00N 47°22' W 122°32'4 7.9
2017-Apr-22 04:30N 47°26' W 122°31'4 7.9
2017-Apr-22 04:00N 47°30' W 122°30'4 7.7
2017-Apr-22 03:30N 47°33' W 122°26'4 7.2
2017-Apr-22 03:00N 47°36' W 122°23'2 4.2
2017-Apr-22 02:30N 47°34' W 122°21'0 0.0
2017-Apr-22 02:00N 47°34' W 122°21'0 0.0
2017-Apr-22 01:30N 47°34' W 122°21'0 0.0
2017-Apr-22 01:00N 47°34' W 122°21'0 0.0
2017-Apr-22 00:30N 47°34' W 122°21'0 0.0
2017-Apr-22 00:00N 47°34' W 122°21'0 0.0
2017-Apr-21 23:30N 47°34' W 122°21'0 0.0
2017-Apr-21 23:00N 47°34' W 122°21'0 0.0
2017-Apr-21 22:30N 47°34' W 122°21'0 0.0
2017-Apr-21 22:00N 47°34' W 122°21'0 0.0
2017-Apr-21 21:30N 47°34' W 122°21'0 0.0
2017-Apr-21 21:00N 47°34' W 122°21'0 0.0
2017-Apr-21 20:30N 47°34' W 122°21'0 0.0
2017-Apr-21 20:00N 47°34' W 122°21'0 0.0
2017-Apr-21 19:30N 47°34' W 122°21'0 0.0
2017-Apr-21 19:00N 47°34' W 122°21'0 0.0
2017-Apr-21 18:30N 47°34' W 122°21'0 0.0
2017-Apr-21 18:00N 47°34' W 122°21'0 0.0
2017-Apr-21 17:30N 47°34' W 122°21'0 0.0
2017-Apr-21 17:00N 47°34' W 122°21'0 0.0
2017-Apr-21 16:30N 47°34' W 122°21'0 0.0
2017-Apr-21 16:00N 47°34' W 122°21'0 0.0
2017-Apr-21 15:30N 47°34' W 122°21'0 0.0
2017-Apr-21 15:00N 47°34' W 122°21'0 0.0
2017-Apr-21 14:30N 47°34' W 122°21'0 0.0
2017-Apr-21 13:30N 47°34' W 122°21'0 0.0
2017-Apr-21 13:00N 47°34' W 122°21'0 0.0
2017-Apr-21 12:30N 47°34' W 122°21'0 0.0
2017-Apr-21 12:00N 47°34' W 122°21'0 0.0
2017-Apr-21 11:30N 47°34' W 122°21'0 0.0
2017-Apr-21 11:00N 47°34' W 122°21'0 0.0
2017-Apr-21 10:30N 47°34' W 122°21'0 0.0
2017-Apr-21 10:00N 47°34' W 122°21'0 0.0
2017-Apr-21 09:30N 47°34' W 122°21'0 0.0
2017-Apr-21 09:00N 47°34' W 122°21'0 0.0
2017-Apr-21 08:30N 47°34' W 122°21'0 0.0
2017-Apr-21 08:00N 47°34' W 122°21'0 0.0
2017-Apr-21 07:30N 47°34' W 122°21'0 0.0
2017-Apr-21 07:00N 47°34' W 122°21'0 0.0
2017-Apr-21 06:30N 47°34' W 122°21'0 0.0
2017-Apr-21 06:00N 47°34' W 122°21'0 0.0
2017-Apr-21 05:30N 47°34' W 122°21'0 0.1
2017-Apr-21 05:00N 47°34' W 122°21'1 2.8
2017-Apr-21 04:30N 47°35' W 122°22'1 2.8
2017-Apr-21 04:00N 47°36' W 122°24'3 5.4
2017-Apr-21 03:30N 47°34' W 122°26'3 6.3
2017-Apr-21 03:00N 47°30' W 122°25'3 6.1
2017-Apr-21 02:30N 47°28' W 122°24'3 6.0
2017-Apr-21 02:00N 47°25' W 122°22'3 5.3
2017-Apr-21 01:30N 47°22' W 122°22'3 6.3
2017-Apr-21 01:00N 47°20' W 122°25'3 6.1
2017-Apr-21 00:30N 47°19' W 122°29'3 5.7
2017-Apr-21 00:00N 47°20' W 122°33'4 7.4
2017-Apr-20 23:30N 47°16' W 122°33'4 7.3
2017-Apr-20 23:00N 47°13' W 122°36'2 0.1
2017-Apr-20 04:36N 47°11' W 122°39'1 7.8
2017-Apr-20 04:27N 47°12' W 122°37'4 9.7
2017-Apr-20 04:00N 47°16' W 122°33'5 9.7
2017-Apr-20 03:30N 47°20' W 122°33'4 8.0
2017-Apr-20 03:00N 47°24' W 122°32'4 8.2
2017-Apr-20 02:31N 47°28' W 122°31'4 8.0
2017-Apr-20 02:01N 47°32' W 122°28'4 7.5
2017-Apr-20 01:30N 47°35' W 122°25'3 5.1
2017-Apr-20 01:01N 47°34' W 122°21'1 2.7
2017-Apr-20 00:31N 47°33' W 122°21'0 0.0
2017-Apr-20 00:00N 47°33' W 122°21'0 0.0
2017-Apr-19 23:31N 47°33' W 122°21'0 0.0
2017-Apr-19 23:01N 47°33' W 122°21'0 0.0
2017-Apr-19 22:31N 47°33' W 122°21'0 0.0
2017-Apr-19 22:01N 47°33' W 122°21'0 0.0
2017-Apr-19 21:31N 47°33' W 122°21'0 0.0
2017-Apr-19 21:01N 47°33' W 122°21'0 0.0
2017-Apr-19 20:30N 47°33' W 122°21'0 0.0
2017-Apr-19 20:01N 47°33' W 122°21'0 0.0
2017-Apr-19 19:31N 47°33' W 122°21'0 0.0
2017-Apr-19 19:01N 47°33' W 122°21'0 0.0
2017-Apr-19 18:30N 47°33' W 122°21'0 0.0
2017-Apr-19 18:00N 47°33' W 122°21'0 0.0
2017-Apr-19 17:31N 47°33' W 122°21'0 0.0
2017-Apr-19 17:01N 47°33' W 122°21'0 0.0
2017-Apr-19 16:30N 47°33' W 122°21'0 0.0
2017-Apr-19 16:00N 47°33' W 122°21'0 0.0
2017-Apr-19 15:30N 47°33' W 122°21'0 0.0
2017-Apr-19 15:00N 47°33' W 122°21'0 0.0
2017-Apr-19 14:31N 47°33' W 122°21'3 2.9
2017-Apr-19 13:31N 47°36' W 122°22'3 6.5
2017-Apr-19 13:01N 47°34' W 122°26'4 8.3
2017-Apr-19 12:31N 47°30' W 122°29'4 8.3
2017-Apr-19 12:01N 47°26' W 122°31'4 8.0
2017-Apr-19 11:31N 47°22' W 122°32'4 8.2
2017-Apr-19 11:01N 47°18' W 122°33'4 8.8
2017-Apr-19 10:30N 47°14' W 122°35'4 8.2
2017-Apr-19 10:00N 47°11' W 122°39'1 0.1
2017-Apr-18 14:58N 47°12' W 122°38'4 9.0
2017-Apr-18 14:30N 47°15' W 122°34'5 5.3
2017-Apr-18 13:30N 47°18' W 122°27'  

Dump ship's entire track history